Time;durP1;ratioP1;P1;durP2;ratioP2;P2;SDS_P1;SDS_P2;PMS_P1;PMS_P2;Temp;Humidity;BMP_temperature;BMP_pressure;BME280_temperature;BME280_humidity;BME280_pressure;Samples;Min_cycle;Max_cycle;Signal;HPM_P1;HPM_P2
2022/10/28 00:01:41;;;;;;;21.00;9.80;;;;;;;;;;6207399;23;20013;-88
2022/10/28 00:04:07;;;;;;;23.02;9.57;;;;;;;;;;6207751;23;20100;-88
2022/10/28 00:06:34;;;;;;;22.13;10.13;;;;;;;;;;6207384;23;20044;-89
2022/10/28 00:09:00;;;;;;;19.50;9.38;;;;;;;;;;6207668;23;20085;-88
2022/10/28 00:11:27;;;;;;;23.65;9.30;;;;;;;;;;6208316;23;20016;-88
2022/10/28 00:13:54;;;;;;;20.00;8.25;;;;;;;;;;6233145;23;20009;-89
2022/10/28 00:16:22;;;;;;;19.98;8.82;;;;;;;;;;6231549;23;20013;-88
2022/10/28 00:18:49;;;;;;;18.55;8.48;;;;;;;;;;6207961;23;20012;-88
2022/10/28 00:21:19;;;;;;;19.48;7.55;;;;;;;;;;6207544;23;20348;-87
2022/10/28 00:23:45;;;;;;;21.88;7.90;;;;;;;;;;6233292;23;20009;-88
2022/10/28 00:26:22;;;;;;;18.70;7.25;;;;;;;;;;6212677;22;20024;-88
2022/10/28 00:28:50;;;;;;;21.23;9.52;;;;;;;;;;6233014;23;20048;-88
2022/10/28 00:31:16;;;;;;;18.83;7.80;;;;;;;;;;6231027;23;20012;-88
2022/10/28 00:33:43;;;;;;;17.48;8.25;;;;;;;;;;6210849;23;20015;-88
2022/10/28 00:36:22;;;;;;;18.95;8.70;;;;;;;;;;6233894;23;20012;-87
2022/10/28 00:38:51;;;;;;;22.38;8.38;;;;;;;;;;6231902;23;20009;-87
2022/10/28 00:41:18;;;;;;;23.83;8.45;;;;;;;;;;6236231;23;20036;-87
2022/10/28 00:43:48;;;;;;;22.52;7.35;;;;;;;;;;6210121;23;20380;-87
2022/10/28 00:46:29;;;;;;;20.50;8.10;;;;;;;;;;6234982;23;20001;-87
2022/10/28 00:49:05;;;;;;;15.20;7.97;;;;;;;;;;6235023;23;20016;-88
2022/10/28 00:51:33;;;;;;;21.65;8.68;;;;;;;;;;6237022;23;20043;-87
2022/10/28 00:53:59;;;;;;;18.02;8.43;;;;;;;;;;6235854;23;20548;-87
2022/10/28 00:56:27;;;;;;;19.75;8.90;;;;;;;;;;6210750;23;20019;-87
2022/10/28 00:58:56;;;;;;;23.02;8.60;;;;;;;;;;6235753;23;20179;-87
2022/10/28 01:01:22;;;;;;;24.00;9.57;;;;;;;;;;6234621;23;20428;-87
2022/10/28 01:03:48;;;;;;;23.35;8.05;;;;;;;;;;6237362;23;20040;-87
2022/10/28 01:06:14;;;;;;;16.70;8.02;;;;;;;;;;6236139;23;20005;-87
2022/10/28 01:08:41;;;;;;;24.33;9.02;;;;;;;;;;6235728;23;20425;-88
2022/10/28 01:11:22;;;;;;;21.20;8.02;;;;;;;;;;6233439;23;20016;-87
2022/10/28 01:13:54;;;;;;;21.52;8.35;;;;;;;;;;6236384;23;20091;-87
2022/10/28 01:16:20;;;;;;;25.92;8.32;;;;;;;;;;6210916;23;20007;-87
2022/10/28 01:18:49;;;;;;;22.95;9.55;;;;;;;;;;6237074;23;20075;-88
2022/10/28 01:21:34;;;;;;;20.02;8.70;;;;;;;;;;6236001;23;20032;-87
2022/10/28 01:24:23;;;;;;;18.63;8.40;;;;;;;;;;6235103;23;20498;-87
2022/10/28 01:27:18;;;;;;;26.10;9.60;;;;;;;;;;6192192;23;20020;-87
2022/10/28 01:29:52;;;;;;;22.95;9.20;;;;;;;;;;6241005;23;20004;-87
2022/10/28 01:32:31;;;;;;;25.40;9.85;;;;;;;;;;6242271;23;20035;-87
2022/10/28 01:34:57;;;;;;;27.55;9.43;;;;;;;;;;6242295;23;20050;-87
2022/10/28 01:37:26;;;;;;;24.00;9.55;;;;;;;;;;6242409;23;20008;-87
2022/10/28 01:39:55;;;;;;;31.98;10.82;;;;;;;;;;6240915;23;20000;-88
2022/10/28 01:42:28;;;;;;;21.00;9.23;;;;;;;;;;6240359;23;20012;-88
2022/10/28 01:44:57;;;;;;;25.60;10.02;;;;;;;;;;6241469;23;20032;-87
2022/10/28 01:47:28;;;;;;;23.88;9.13;;;;;;;;;;6240632;23;20008;-87
2022/10/28 01:50:03;;;;;;;25.63;9.00;;;;;;;;;;6240412;23;20008;-87
2022/10/28 01:52:31;;;;;;;26.20;8.95;;;;;;;;;;6241531;23;20042;-87
2022/10/28 01:55:03;;;;;;;17.30;8.27;;;;;;;;;;6240395;23;20073;-87
2022/10/28 01:57:30;;;;;;;22.95;9.93;;;;;;;;;;6240361;23;20095;-87
2022/10/28 01:59:57;;;;;;;22.02;9.43;;;;;;;;;;6212756;23;20019;-87
2022/10/28 02:02:23;;;;;;;25.10;10.38;;;;;;;;;;6238078;23;20200;-87
2022/10/28 02:04:49;;;;;;;25.00;9.80;;;;;;;;;;6211638;23;20062;-87
2022/10/28 02:07:16;;;;;;;22.52;9.82;;;;;;;;;;6241086;23;20502;-87
2022/10/28 02:09:58;;;;;;;25.67;10.45;;;;;;;;;;6239524;23;20012;-87
2022/10/28 02:12:33;;;;;;;24.23;10.80;;;;;;;;;;6237656;23;20402;-88
2022/10/28 02:15:11;;;;;;;20.70;9.95;;;;;;;;;;6237669;23;20313;-88
2022/10/28 02:17:56;;;;;;;17.92;8.82;;;;;;;;;;6240606;22;20077;-88
2022/10/28 02:20:37;;;;;;;17.88;8.38;;;;;;;;;;6237150;23;20022;-87
2022/10/28 02:23:15;;;;;;;22.15;9.90;;;;;;;;;;6239024;23;20000;-88
2022/10/28 02:25:49;;;;;;;23.17;9.38;;;;;;;;;;6244931;22;20039;-88
2022/10/28 02:28:19;;;;;;;26.52;9.57;;;;;;;;;;6243501;22;20014;-88
2022/10/28 02:30:46;;;;;;;22.55;10.27;;;;;;;;;;6244711;22;20030;-87
2022/10/28 02:33:14;;;;;;;25.33;10.60;;;;;;;;;;6246312;22;20091;-88
2022/10/28 02:35:58;;;;;;;20.88;9.10;;;;;;;;;;6245865;22;20782;-87
2022/10/28 02:38:35;;;;;;;20.23;9.52;;;;;;;;;;6273745;22;20317;-88
2022/10/28 02:41:04;;;;;;;25.58;9.85;;;;;;;;;;6242415;22;20039;-88
2022/10/28 02:43:32;;;;;;;26.90;10.93;;;;;;;;;;6245670;22;20008;-88
2022/10/28 02:45:59;;;;;;;32.63;10.82;;;;;;;;;;6243811;22;20510;-88
2022/10/28 02:48:31;;;;;;;22.83;10.77;;;;;;;;;;6246171;22;20336;-87
2022/10/28 02:51:00;;;;;;;25.20;10.98;;;;;;;;;;6244342;22;20007;-87
2022/10/28 02:53:32;;;;;;;27.08;10.63;;;;;;;;;;6247187;22;20356;-88
2022/10/28 02:55:59;;;;;;;26.58;10.48;;;;;;;;;;6245220;22;20692;-87
2022/10/28 02:58:29;;;;;;;29.40;11.40;;;;;;;;;;6245248;22;20064;-86
2022/10/28 03:00:55;;;;;;;27.85;10.75;;;;;;;;;;6246517;22;20359;-88
2022/10/28 03:03:21;;;;;;;24.67;11.23;;;;;;;;;;6222081;22;20575;-87
2022/10/28 03:05:47;;;;;;;28.33;11.27;;;;;;;;;;6221679;22;20008;-88
2022/10/28 03:08:13;;;;;;;25.45;11.05;;;;;;;;;;6221646;22;20012;-88
2022/10/28 03:10:39;;;;;;;22.13;9.85;;;;;;;;;;6245726;22;20098;-88
2022/10/28 03:13:05;;;;;;;21.27;10.77;;;;;;;;;;6245032;22;20098;-88
2022/10/28 03:15:31;;;;;;;25.50;11.00;;;;;;;;;;6220018;22;20011;-88
2022/10/28 03:17:57;;;;;;;29.15;9.88;;;;;;;;;;6218150;22;20011;-88
2022/10/28 03:20:23;;;;;;;22.27;9.75;;;;;;;;;;6219489;22;20055;-88
2022/10/28 03:22:49;;;;;;;22.85;10.02;;;;;;;;;;6218571;22;20004;-87
2022/10/28 03:25:15;;;;;;;19.25;8.77;;;;;;;;;;6244867;22;20055;-88
2022/10/28 03:27:41;;;;;;;22.60;10.95;;;;;;;;;;6210238;22;20028;-88
2022/10/28 03:30:08;;;;;;;23.38;11.93;;;;;;;;;;6208309;23;20069;-88
2022/10/28 03:32:34;;;;;;;27.98;11.30;;;;;;;;;;6184375;23;20070;-88
2022/10/28 03:35:00;;;;;;;29.50;11.70;;;;;;;;;;6183543;23;20478;-89
2022/10/28 03:37:26;;;;;;;30.63;11.38;;;;;;;;;;6208163;23;20092;-87
2022/10/28 03:39:52;;;;;;;21.52;10.70;;;;;;;;;;6210257;23;20064;-88
2022/10/28 03:42:18;;;;;;;37.85;12.15;;;;;;;;;;6182850;23;20001;-88
2022/10/28 03:44:44;;;;;;;24.42;10.45;;;;;;;;;;6184395;23;20718;-88
2022/10/28 03:47:10;;;;;;;26.52;11.10;;;;;;;;;;6182943;23;20009;-88
2022/10/28 03:49:36;;;;;;;25.63;11.63;;;;;;;;;;6181465;23;20305;-88
2022/10/28 03:52:03;;;;;;;22.90;11.60;;;;;;;;;;6183370;23;20013;-88
2022/10/28 03:54:29;;;;;;;35.90;11.60;;;;;;;;;;6182253;23;20040;-88
2022/10/28 03:57:01;;;;;;;20.13;9.52;;;;;;;;;;6185169;23;20009;-88
2022/10/28 03:59:27;;;;;;;29.02;11.82;;;;;;;;;;6211103;23;20019;-88
2022/10/28 04:01:53;;;;;;;21.88;11.35;;;;;;;;;;6183580;23;20035;-87
2022/10/28 04:04:19;;;;;;;26.58;12.27;;;;;;;;;;6207258;23;20008;-87
2022/10/28 04:06:45;;;;;;;25.27;11.88;;;;;;;;;;6181954;23;20016;-89
2022/10/28 04:09:11;;;;;;;26.83;12.70;;;;;;;;;;6184088;23;20013;-87
2022/10/28 04:11:37;;;;;;;26.80;10.85;;;;;;;;;;6182217;23;20016;-87
2022/10/28 04:14:04;;;;;;;22.55;12.95;;;;;;;;;;6185287;23;20013;-87
2022/10/28 04:16:30;;;;;;;27.50;11.80;;;;;;;;;;6185458;23;20511;-88
2022/10/28 04:18:56;;;;;;;26.60;11.10;;;;;;;;;;6186874;23;20449;-87
2022/10/28 04:21:22;;;;;;;24.02;12.07;;;;;;;;;;6186668;23;20009;-88
2022/10/28 04:23:48;;;;;;;31.80;12.18;;;;;;;;;;6213123;23;20544;-87
2022/10/28 04:26:14;;;;;;;27.60;12.68;;;;;;;;;;6191447;22;20021;-88
2022/10/28 04:28:40;;;;;;;33.42;11.48;;;;;;;;;;6212534;23;20034;-88
2022/10/28 04:31:06;;;;;;;27.15;12.05;;;;;;;;;;6186969;23;20005;-88
2022/10/28 04:33:32;;;;;;;31.17;11.38;;;;;;;;;;6211692;23;20527;-88
2022/10/28 04:35:58;;;;;;;33.55;10.85;;;;;;;;;;6207728;23;20013;-88
2022/10/28 04:38:24;;;;;;;26.65;11.98;;;;;;;;;;6181580;23;20062;-88
2022/10/28 04:40:50;;;;;;;25.17;11.07;;;;;;;;;;6186561;23;20036;-89
2022/10/28 04:43:16;;;;;;;31.25;12.25;;;;;;;;;;6186350;23;20008;-86
2022/10/28 04:45:42;;;;;;;29.48;12.82;;;;;;;;;;6210259;23;20780;-86
2022/10/28 04:48:12;;;;;;;29.10;12.43;;;;;;;;;;6208974;23;20051;-86
2022/10/28 04:50:38;;;;;;;32.83;13.13;;;;;;;;;;6210142;23;20063;-86
2022/10/28 04:53:04;;;;;;;28.15;12.35;;;;;;;;;;6206900;23;20016;-86
2022/10/28 04:55:30;;;;;;;28.42;12.20;;;;;;;;;;6187506;23;20009;-86
2022/10/28 04:57:57;;;;;;;39.53;12.55;;;;;;;;;;6185382;23;20365;-85
2022/10/28 05:00:24;;;;;;;36.33;13.45;;;;;;;;;;6210026;23;20009;-85
2022/10/28 05:02:51;;;;;;;36.70;13.38;;;;;;;;;;6182015;23;20016;-85
2022/10/28 05:05:17;;;;;;;31.42;13.82;;;;;;;;;;6210894;23;20058;-85
2022/10/28 05:07:43;;;;;;;30.33;12.73;;;;;;;;;;6210669;23;20013;-86
2022/10/28 05:10:17;;;;;;;34.17;13.77;;;;;;;;;;6209249;23;20119;-85
2022/10/28 05:12:43;;;;;;;43.35;14.55;;;;;;;;;;6210445;23;20452;-85
2022/10/28 05:15:10;;;;;;;36.75;14.88;;;;;;;;;;6210768;23;20013;-85
2022/10/28 05:17:37;;;;;;;25.67;13.77;;;;;;;;;;6208622;23;20009;-85
2022/10/28 05:20:03;;;;;;;34.20;15.02;;;;;;;;;;6210774;23;20011;-85
2022/10/28 05:22:29;;;;;;;38.47;15.63;;;;;;;;;;6208041;23;20490;-85
2022/10/28 05:24:55;;;;;;;35.40;15.20;;;;;;;;;;6183651;23;20009;-85
2022/10/28 05:27:22;;;;;;;44.58;14.73;;;;;;;;;;6211362;22;20027;-85
2022/10/28 05:29:48;;;;;;;36.10;14.70;;;;;;;;;;6185324;23;20062;-86
2022/10/28 05:32:14;;;;;;;34.35;14.77;;;;;;;;;;6183524;23;20012;-85
2022/10/28 05:34:40;;;;;;;36.70;14.52;;;;;;;;;;6184479;23;20024;-86
2022/10/28 05:37:06;;;;;;;35.58;14.85;;;;;;;;;;6182270;23;20436;-85
2022/10/28 05:39:32;;;;;;;32.95;14.38;;;;;;;;;;6183860;23;20024;-85
2022/10/28 05:41:58;;;;;;;39.03;14.52;;;;;;;;;;6183724;23;20015;-85
2022/10/28 05:44:24;;;;;;;35.70;15.45;;;;;;;;;;6183126;23;20009;-86
2022/10/28 05:46:50;;;;;;;38.88;14.73;;;;;;;;;;6210126;23;20047;-85
2022/10/28 05:49:19;;;;;;;38.20;15.80;;;;;;;;;;6212060;23;20337;-86
2022/10/28 05:51:45;;;;;;;34.17;13.75;;;;;;;;;;6183825;23;20731;-85
2022/10/28 05:54:11;;;;;;;42.88;14.68;;;;;;;;;;6185181;23;20424;-85
2022/10/28 05:56:37;;;;;;;30.45;13.60;;;;;;;;;;6184340;23;20436;-85
2022/10/28 05:59:03;;;;;;;31.92;13.85;;;;;;;;;;6180898;23;20019;-86
2022/10/28 06:01:29;;;;;;;30.40;15.30;;;;;;;;;;6183935;23;20008;-86
2022/10/28 06:03:55;;;;;;;35.53;14.13;;;;;;;;;;6208835;23;20001;-85
2022/10/28 06:06:22;;;;;;;40.38;13.90;;;;;;;;;;6183947;23;20004;-86
2022/10/28 06:08:48;;;;;;;33.80;12.60;;;;;;;;;;6208229;23;20764;-85
2022/10/28 06:11:14;;;;;;;41.53;14.43;;;;;;;;;;6185315;23;20040;-86
2022/10/28 06:13:40;;;;;;;39.95;14.82;;;;;;;;;;6207693;23;20078;-85
2022/10/28 06:16:06;;;;;;;35.20;14.23;;;;;;;;;;6208587;23;20008;-85
2022/10/28 06:18:32;;;;;;;36.50;14.77;;;;;;;;;;6183144;23;20008;-85
2022/10/28 06:20:59;;;;;;;36.75;14.23;;;;;;;;;;6207572;23;20009;-85
2022/10/28 06:23:27;;;;;;;34.05;13.48;;;;;;;;;;6208772;23;20012;-86
2022/10/28 06:26:00;;;;;;;29.80;13.45;;;;;;;;;;6214935;22;20080;-86
2022/10/28 06:28:27;;;;;;;35.80;13.68;;;;;;;;;;6244861;22;20073;-86
2022/10/28 06:30:53;;;;;;;35.67;13.88;;;;;;;;;;6270649;22;20507;-85
2022/10/28 06:33:19;;;;;;;38.55;14.88;;;;;;;;;;6218380;22;20039;-86
2022/10/28 06:35:45;;;;;;;26.60;13.20;;;;;;;;;;6218150;22;20029;-85
2022/10/28 06:38:10;;;;;;;31.10;13.00;;;;;;;;;;6216695;22;20022;-86
2022/10/28 06:40:37;;;;;;;34.90;14.02;;;;;;;;;;6244321;22;20012;-86
2022/10/28 06:43:04;;;;;;;37.95;14.38;;;;;;;;;;6269435;22;19999;-86
2022/10/28 06:45:31;;;;;;;31.33;13.77;;;;;;;;;;6240617;22;20584;-86
2022/10/28 06:47:58;;;;;;;26.85;13.75;;;;;;;;;;6269730;22;20007;-86
2022/10/28 06:50:24;;;;;;;33.20;13.05;;;;;;;;;;6240977;22;20007;-85
2022/10/28 06:52:50;;;;;;;36.95;15.98;;;;;;;;;;6242988;22;20034;-85
2022/10/28 06:55:16;;;;;;;34.25;12.82;;;;;;;;;;6242189;22;20020;-85
2022/10/28 06:57:42;;;;;;;27.85;12.50;;;;;;;;;;6245029;22;20000;-85
2022/10/28 07:00:08;;;;;;;27.50;12.43;;;;;;;;;;6245179;22;20020;-85
2022/10/28 07:02:34;;;;;;;31.80;13.35;;;;;;;;;;6219679;22;20019;-86
2022/10/28 07:05:01;;;;;;;27.48;12.93;;;;;;;;;;6243897;22;20383;-85
2022/10/28 07:07:27;;;;;;;40.78;13.50;;;;;;;;;;6219629;22;20014;-85
2022/10/28 07:09:53;;;;;;;32.67;12.95;;;;;;;;;;6242406;22;20018;-86
2022/10/28 07:12:19;;;;;;;36.20;13.02;;;;;;;;;;6218914;22;20418;-85
2022/10/28 07:14:46;;;;;;;35.30;12.05;;;;;;;;;;6241955;22;20035;-85
2022/10/28 07:17:12;;;;;;;30.60;12.45;;;;;;;;;;6218710;22;20023;-86
2022/10/28 07:19:38;;;;;;;32.08;11.52;;;;;;;;;;6242743;22;20423;-85
2022/10/28 07:22:04;;;;;;;24.80;11.73;;;;;;;;;;6220405;22;20019;-86
2022/10/28 07:24:30;;;;;;;28.80;11.68;;;;;;;;;;6216683;22;20457;-86
2022/10/28 07:26:56;;;;;;;30.15;11.27;;;;;;;;;;6228152;22;20075;-86
2022/10/28 07:29:22;;;;;;;36.45;11.95;;;;;;;;;;6209571;23;20012;-86
2022/10/28 07:31:48;;;;;;;23.92;11.55;;;;;;;;;;6182843;23;20013;-86
2022/10/28 07:34:14;;;;;;;27.73;10.25;;;;;;;;;;6183840;23;20429;-86
2022/10/28 07:36:40;;;;;;;22.20;10.02;;;;;;;;;;6207538;23;20012;-85
2022/10/28 07:39:06;;;;;;;25.33;10.10;;;;;;;;;;6183722;23;20035;-86
2022/10/28 07:41:32;;;;;;;25.15;10.35;;;;;;;;;;6208337;23;20015;-86
2022/10/28 07:43:59;;;;;;;29.98;11.13;;;;;;;;;;6183224;23;20009;-85
2022/10/28 07:46:25;;;;;;;25.77;10.38;;;;;;;;;;6206840;23;20017;-86
2022/10/28 07:48:51;;;;;;;24.17;9.63;;;;;;;;;;6206031;23;20004;-86
2022/10/28 07:51:17;;;;;;;23.67;9.35;;;;;;;;;;6233160;23;20128;-86
2022/10/28 07:53:43;;;;;;;21.27;9.50;;;;;;;;;;6213044;23;20103;-86
2022/10/28 07:56:13;;;;;;;25.00;8.95;;;;;;;;;;6209621;23;20017;-86
2022/10/28 07:58:40;;;;;;;22.33;8.48;;;;;;;;;;6236776;23;20036;-86
2022/10/28 08:01:07;;;;;;;23.08;8.23;;;;;;;;;;6235302;23;20516;-86
2022/10/28 08:03:33;;;;;;;21.02;8.35;;;;;;;;;;6211067;23;20292;-86
2022/10/28 08:06:04;;;;;;;28.83;9.25;;;;;;;;;;6234874;23;20062;-86
2022/10/28 08:08:30;;;;;;;26.45;8.50;;;;;;;;;;6232753;23;20004;-86
2022/10/28 08:10:56;;;;;;;22.98;7.85;;;;;;;;;;6210128;23;20028;-85
2022/10/28 08:13:22;;;;;;;16.63;6.95;;;;;;;;;;6210230;23;20437;-86
2022/10/28 08:15:52;;;;;;;16.55;7.22;;;;;;;;;;6209386;23;20455;-86
2022/10/28 08:18:18;;;;;;;17.13;6.43;;;;;;;;;;6211021;23;20385;-86
2022/10/28 08:20:44;;;;;;;20.33;7.03;;;;;;;;;;6210249;23;20417;-86
2022/10/28 08:23:10;;;;;;;21.98;8.07;;;;;;;;;;6209718;23;20075;-86
2022/10/28 08:25:36;;;;;;;16.33;6.15;;;;;;;;;;6209485;23;20037;-85
2022/10/28 08:28:02;;;;;;;18.20;7.25;;;;;;;;;;6237590;22;20024;-86
2022/10/28 08:30:28;;;;;;;17.45;6.25;;;;;;;;;;6233433;23;20008;-86
2022/10/28 08:32:54;;;;;;;25.27;6.32;;;;;;;;;;6207076;23;20001;-86
2022/10/28 08:35:21;;;;;;;17.92;6.57;;;;;;;;;;6208261;23;20373;-86
2022/10/28 08:37:51;;;;;;;14.30;6.70;;;;;;;;;;6234179;23;20052;-86
2022/10/28 08:40:17;;;;;;;19.55;5.43;;;;;;;;;;6210013;23;20539;-86
2022/10/28 08:42:49;;;;;;;17.95;5.85;;;;;;;;;;6235310;23;20008;-86
2022/10/28 08:45:25;;;;;;;14.68;4.97;;;;;;;;;;6233623;23;19996;-86
2022/10/28 08:47:55;;;;;;;12.73;4.97;;;;;;;;;;6211773;23;20009;-86
2022/10/28 08:50:22;;;;;;;14.50;4.90;;;;;;;;;;6209502;23;20638;-86
2022/10/28 08:52:55;;;;;;;26.08;5.25;;;;;;;;;;6235392;23;20013;-86
2022/10/28 08:55:33;;;;;;;17.55;6.20;;;;;;;;;;6235098;23;20039;-86
2022/10/28 08:57:59;;;;;;;18.63;6.38;;;;;;;;;;6235431;23;20051;-86
2022/10/28 09:00:30;;;;;;;15.60;4.85;;;;;;;;;;6237455;23;20000;-86
2022/10/28 09:03:11;;;;;;;15.23;5.40;;;;;;;;;;6233346;23;20015;-86
2022/10/28 09:05:39;;;;;;;14.52;4.53;;;;;;;;;;6211625;23;20025;-86
2022/10/28 09:08:05;;;;;;;22.42;5.82;;;;;;;;;;6215129;23;20004;-85
2022/10/28 09:10:50;;;;;;;14.18;6.15;;;;;;;;;;6211087;23;20016;-86
2022/10/28 09:13:35;;;;;;;11.55;4.65;;;;;;;;;;6236987;23;20009;-86
2022/10/28 09:16:18;;;;;;;19.60;5.45;;;;;;;;;;6234782;23;20012;-86
2022/10/28 09:18:55;;;;;;;13.55;5.53;;;;;;;;;;6236699;23;20012;-86
2022/10/28 09:21:24;;;;;;;12.98;5.47;;;;;;;;;;6213657;23;20035;-86
2022/10/28 09:23:55;;;;;;;26.58;6.35;;;;;;;;;;6235998;23;20004;-86
2022/10/28 09:26:39;;;;;;;22.73;5.93;;;;;;;;;;6219971;22;20008;-86
2022/10/28 09:29:17;;;;;;;12.25;5.68;;;;;;;;;;6210990;23;20043;-86
2022/10/28 09:31:47;;;;;;;12.73;5.53;;;;;;;;;;6212082;23;20086;-87
2022/10/28 09:34:16;;;;;;;21.48;8.07;;;;;;;;;;6212685;23;20008;-88
2022/10/28 09:36:45;;;;;;;15.93;5.90;;;;;;;;;;6211754;23;20013;-87
2022/10/28 09:39:14;;;;;;;16.38;5.25;;;;;;;;;;6209416;23;20012;-87
2022/10/28 09:41:41;;;;;;;19.02;5.68;;;;;;;;;;6210180;23;20004;-87
2022/10/28 09:44:18;;;;;;;29.52;7.40;;;;;;;;;;6185986;23;20352;-86
2022/10/28 09:46:46;;;;;;;15.73;5.57;;;;;;;;;;6210859;23;20001;-87
2022/10/28 09:49:16;;;;;;;16.02;6.75;;;;;;;;;;6211642;23;20428;-86
2022/10/28 09:52:05;;;;;;;16.92;6.07;;;;;;;;;;6213312;23;20475;-86
2022/10/28 09:54:34;;;;;;;13.82;6.68;;;;;;;;;;6191461;23;20127;-87
2022/10/28 09:57:01;;;;;;;17.13;6.30;;;;;;;;;;6209906;23;20456;-87
2022/10/28 09:59:27;;;;;;;19.58;6.40;;;;;;;;;;6211718;23;20068;-87
2022/10/28 10:01:53;;;;;;;23.98;5.63;;;;;;;;;;6187800;23;20013;-86
2022/10/28 10:04:20;;;;;;;17.92;5.55;;;;;;;;;;6212172;23;20012;-86
2022/10/28 10:06:49;;;;;;;16.05;4.75;;;;;;;;;;6213683;23;20015;-86
2022/10/28 10:09:24;;;;;;;25.75;6.22;;;;;;;;;;6217656;23;20072;-86
2022/10/28 10:11:51;;;;;;;19.20;5.20;;;;;;;;;;6214700;23;20399;-86
2022/10/28 10:14:22;;;;;;;22.33;5.95;;;;;;;;;;6216883;23;20100;-87
2022/10/28 10:16:59;;;;;;;13.30;5.15;;;;;;;;;;6215340;23;20021;-87
2022/10/28 10:19:25;;;;;;;23.08;4.82;;;;;;;;;;6210773;23;20008;-86
2022/10/28 10:21:55;;;;;;;14.88;5.32;;;;;;;;;;6186317;23;20009;-86
2022/10/28 10:24:30;;;;;;;33.90;6.22;;;;;;;;;;6209790;23;20032;-87
2022/10/28 10:27:03;;;;;;;20.25;6.65;;;;;;;;;;6199835;22;20092;-87
2022/10/28 10:29:37;;;;;;;18.08;5.40;;;;;;;;;;6213132;23;20027;-86
2022/10/28 10:32:23;;;;;;;27.67;5.03;;;;;;;;;;6211868;23;20008;-87
2022/10/28 10:34:49;;;;;;;;;;;;;;;;;;6187103;23;20012;-87
2022/10/28 10:37:22;;;;;;;24.75;5.72;;;;;;;;;;6210871;23;19953;-86
2022/10/28 10:40:18;;;;;;;13.77;4.97;;;;;;;;;;6209555;23;20528;-87
2022/10/28 10:42:44;;;;;;;13.73;5.13;;;;;;;;;;6179373;23;20015;-86
2022/10/28 10:45:12;;;;;;;23.42;5.10;;;;;;;;;;6210282;23;20005;-87
2022/10/28 10:47:38;;;;;;;17.88;5.75;;;;;;;;;;6211113;23;20329;-87
2022/10/28 10:50:36;;;;;;;16.88;5.40;;;;;;;;;;6182815;23;20024;-86
2022/10/28 10:53:02;;;;;;;17.60;5.75;;;;;;;;;;6176974;23;20396;-87
2022/10/28 10:55:28;;;;;;;15.15;5.13;;;;;;;;;;6205872;23;20437;-87
2022/10/28 10:57:55;;;;;;;20.50;5.30;;;;;;;;;;6207490;23;20040;-87
2022/10/28 11:00:30;;;;;;;15.63;5.53;;;;;;;;;;6208302;23;20056;-87
2022/10/28 11:02:56;;;;;;;17.30;5.20;;;;;;;;;;6187435;23;20113;-86
2022/10/28 11:05:23;;;;;;;16.13;5.22;;;;;;;;;;6185640;23;20009;-86
2022/10/28 11:07:55;;;;;;;19.88;5.18;;;;;;;;;;6188094;23;20823;-86
2022/10/28 11:10:32;;;;;;;13.48;5.30;;;;;;;;;;6213149;23;20106;-86
2022/10/28 11:13:00;;;;;;;26.08;5.88;;;;;;;;;;6213962;23;20013;-86
2022/10/28 11:15:30;;;;;;;14.10;5.55;;;;;;;;;;6213686;23;20428;-86
2022/10/28 11:18:09;;;;;;;23.77;5.60;;;;;;;;;;6212091;23;20084;-86
2022/10/28 11:20:47;;;;;;;21.63;5.15;;;;;;;;;;6212571;23;20367;-86
2022/10/28 11:23:13;;;;;;;20.55;5.57;;;;;;;;;;6213160;23;20016;-86
2022/10/28 11:25:44;;;;;;;22.83;5.03;;;;;;;;;;6210662;23;20012;-86
2022/10/28 11:28:19;;;;;;;17.20;4.82;;;;;;;;;;6228446;22;20027;-86
2022/10/28 11:31:04;;;;;;;17.58;5.30;;;;;;;;;;6241626;23;20008;-86
2022/10/28 11:33:30;;;;;;;21.05;6.55;;;;;;;;;;6239625;23;20009;-87
2022/10/28 11:35:59;;;;;;;18.63;6.43;;;;;;;;;;6239658;23;20015;-86
2022/10/28 11:38:38;;;;;;;18.60;6.30;;;;;;;;;;6244130;23;20074;-87
2022/10/28 11:41:07;;;;;;;10.23;4.88;;;;;;;;;;6239734;23;20004;-87
2022/10/28 11:43:55;;;;;;;21.58;4.90;;;;;;;;;;6239417;23;19996;-86
2022/10/28 11:46:50;;;;;;;11.52;4.68;;;;;;;;;;6239642;23;20086;-86
2022/10/28 11:49:19;;;;;;;17.47;5.67;;;;;;;;;;6206561;23;20071;-87
2022/10/28 11:51:45;;;;;;;17.65;5.45;;;;;;;;;;6237763;23;20008;-86
2022/10/28 11:54:30;;;;;;;22.85;5.47;;;;;;;;;;6241234;23;20022;-86
2022/10/28 11:57:17;;;;;;;25.40;5.80;;;;;;;;;;6237340;23;20168;-86
2022/10/28 11:59:42;;;;;;;;;;;;;;;;;;6239864;23;20008;-86
2022/10/28 12:02:24;;;;;;;26.75;5.82;;;;;;;;;;6240618;23;19906;-86
2022/10/28 12:04:53;;;;;;;17.10;3.97;;;;;;;;;;6238705;23;20517;-87
2022/10/28 12:07:22;;;;;;;23.58;4.88;;;;;;;;;;6240687;23;20099;-86
2022/10/28 12:10:04;;;;;;;21.98;5.00;;;;;;;;;;6240095;23;20060;-86
2022/10/28 12:12:40;;;;;;;14.60;4.70;;;;;;;;;;6239425;23;20019;-87
2022/10/28 12:15:19;;;;;;;15.23;4.97;;;;;;;;;;6239705;23;20471;-86
2022/10/28 12:18:07;;;;;;;19.45;5.03;;;;;;;;;;6239277;23;20009;-87
2022/10/28 12:20:36;;;;;;;17.50;4.60;;;;;;;;;;6240220;23;20085;-87
2022/10/28 12:23:04;;;;;;;25.23;5.30;;;;;;;;;;6238246;23;20031;-87
2022/10/28 12:25:32;;;;;;;22.48;7.15;;;;;;;;;;6242992;23;20548;-86
2022/10/28 12:28:01;;;;;;;17.58;4.10;;;;;;;;;;6253241;22;20660;-87
2022/10/28 12:30:29;;;;;;;20.90;4.88;;;;;;;;;;6219937;22;20450;-87
2022/10/28 12:33:14;;;;;;;14.38;4.85;;;;;;;;;;6272781;22;20004;-86
2022/10/28 12:35:48;;;;;;;18.08;4.43;;;;;;;;;;6246209;22;20436;-86
2022/10/28 12:38:32;;;;;;;19.20;5.70;;;;;;;;;;6245110;22;20011;-86
2022/10/28 12:41:31;;;;;;;14.18;4.70;;;;;;;;;;6244362;22;20404;-87
2022/10/28 12:44:02;;;;;;;20.85;5.22;;;;;;;;;;6161164;22;20057;-86
2022/10/28 12:46:34;;;;;;;19.92;4.90;;;;;;;;;;6243112;22;20483;-87
2022/10/28 12:49:04;;;;;;;13.32;4.50;;;;;;;;;;6240816;22;20007;-86
2022/10/28 12:51:36;;;;;;;21.02;5.15;;;;;;;;;;6241456;22;20493;-86
2022/10/28 12:54:20;;;;;;;22.25;4.97;;;;;;;;;;6240509;22;20043;-86
2022/10/28 12:56:52;;;;;;;26.63;5.88;;;;;;;;;;6240055;22;20065;-86
2022/10/28 12:59:30;;;;;;;15.50;5.18;;;;;;;;;;6241467;22;20011;-86
2022/10/28 13:01:59;;;;;;;28.80;6.53;;;;;;;;;;6245500;22;20050;-86
2022/10/28 13:04:27;;;;;;;19.85;5.13;;;;;;;;;;6246024;22;20003;-86
2022/10/28 13:06:56;;;;;;;24.33;5.53;;;;;;;;;;6247009;22;20007;-86
2022/10/28 13:09:46;;;;;;;25.75;5.65;;;;;;;;;;6249923;22;20004;-86
2022/10/28 13:12:18;;;;;;;16.13;4.82;;;;;;;;;;6248141;22;20035;-88
2022/10/28 13:15:03;;;;;;;14.60;5.55;;;;;;;;;;6250010;22;20012;-87
2022/10/28 13:17:29;;;;;;;18.55;5.20;;;;;;;;;;6277015;22;20475;-85
2022/10/28 13:20:01;;;;;;;18.95;5.85;;;;;;;;;;6278610;22;20004;-86
2022/10/28 13:22:39;;;;;;;17.00;5.07;;;;;;;;;;6251242;22;20134;-85
2022/10/28 13:25:23;;;;;;;25.88;6.45;;;;;;;;;;6250526;22;20006;-89
2022/10/28 13:27:59;;;;;;;15.07;4.70;;;;;;;;;;6240375;22;20524;-90
2022/10/28 13:30:26;;;;;;;18.33;5.50;;;;;;;;;;6217957;23;20322;-89
2022/10/28 13:33:03;;;;;;;20.25;5.63;;;;;;;;;;6238243;23;20487;-88
2022/10/28 13:35:29;;;;;;;18.00;4.72;;;;;;;;;;6241942;23;20012;-89
2022/10/28 13:37:56;;;;;;;15.13;5.45;;;;;;;;;;6242879;23;20008;-89
2022/10/28 13:40:32;;;;;;;20.00;6.18;;;;;;;;;;6243084;23;20004;-89
2022/10/28 13:42:59;;;;;;;17.98;4.80;;;;;;;;;;6243529;23;20028;-90
2022/10/28 13:45:47;;;;;;;19.58;5.80;;;;;;;;;;6213906;23;20017;-89
2022/10/28 13:48:28;;;;;;;28.40;5.30;;;;;;;;;;6216474;23;20566;-89
2022/10/28 13:51:11;;;;;;;15.70;5.30;;;;;;;;;;6240549;23;20020;-89
2022/10/28 13:53:41;;;;;;;18.55;6.35;;;;;;;;;;6238337;23;20400;-89
2022/10/28 13:56:30;;;;;;;17.98;5.20;;;;;;;;;;6240068;23;20008;-89
2022/10/28 13:59:02;;;;;;;20.80;4.80;;;;;;;;;;6202243;23;20009;-89
2022/10/28 14:01:35;;;;;;;19.75;6.57;;;;;;;;;;6237812;23;20479;-88
2022/10/28 14:04:02;;;;;;;19.55;4.97;;;;;;;;;;6238877;23;20054;-89
2022/10/28 14:06:32;;;;;;;16.65;5.80;;;;;;;;;;6213586;23;20539;-89
2022/10/28 14:08:59;;;;;;;23.23;5.55;;;;;;;;;;6238458;23;20005;-89
2022/10/28 14:11:29;;;;;;;16.67;5.15;;;;;;;;;;6239421;23;20483;-89
2022/10/28 14:13:56;;;;;;;21.52;5.45;;;;;;;;;;6239100;23;20005;-88
2022/10/28 14:16:28;;;;;;;29.45;7.68;;;;;;;;;;6237576;23;20066;-88
2022/10/28 14:18:59;;;;;;;17.80;5.40;;;;;;;;;;6237911;23;20012;-89
2022/10/28 14:21:25;;;;;;;18.13;5.63;;;;;;;;;;6239441;23;20011;-89
2022/10/28 14:24:08;;;;;;;17.30;5.20;;;;;;;;;;6211672;23;20075;-89
2022/10/28 14:26:57;;;;;;;22.13;5.80;;;;;;;;;;6239575;23;20445;-88
2022/10/28 14:29:28;;;;;;;21.17;5.15;;;;;;;;;;6194527;23;20020;-88
2022/10/28 14:31:56;;;;;;;19.65;6.47;;;;;;;;;;6241962;23;20283;-89
2022/10/28 14:34:22;;;;;;;20.63;6.53;;;;;;;;;;6219621;23;20013;-90
2022/10/28 14:36:56;;;;;;;20.38;6.10;;;;;;;;;;6242957;23;20008;-89
2022/10/28 14:39:32;;;;;;;20.48;5.70;;;;;;;;;;6241486;23;20016;-89
2022/10/28 14:42:14;;;;;;;15.82;4.50;;;;;;;;;;6243832;23;20000;-89
2022/10/28 14:44:52;;;;;;;24.02;6.43;;;;;;;;;;6245050;23;20099;-89